sensor_id;sensor_type;location;lat;lon;timestamp;pressure;altitude;pressure_sealevel;temperature;humidity
51261;BME280;61705;46.228;24.812;2023-02-11T00:01:09;99554.94;;;-13.27;84.09
51261;BME280;61705;46.228;24.812;2023-02-11T00:03:37;99555.28;;;-13.22;84.13
51261;BME280;61705;46.228;24.812;2023-02-11T00:06:06;99557.59;;;-13.25;84.10
51261;BME280;61705;46.228;24.812;2023-02-11T00:08:37;99549.75;;;-13.28;83.91
51261;BME280;61705;46.228;24.812;2023-02-11T00:11:06;99550.38;;;-13.31;84.12
51261;BME280;61705;46.228;24.812;2023-02-11T00:13:35;99553.81;;;-13.30;83.83
51261;BME280;61705;46.228;24.812;2023-02-11T00:16:09;99553.31;;;-13.37;83.93
51261;BME280;61705;46.228;24.812;2023-02-11T00:18:36;99559.19;;;-13.38;83.84
51261;BME280;61705;46.228;24.812;2023-02-11T00:23:34;99552.97;;;-13.41;83.77
51261;BME280;61705;46.228;24.812;2023-02-11T00:26:00;99558.84;;;-13.42;83.88
51261;BME280;61705;46.228;24.812;2023-02-11T00:28:27;99554.56;;;-13.53;83.79
51261;BME280;61705;46.228;24.812;2023-02-11T00:30:57;99558.34;;;-13.48;83.98
51261;BME280;61705;46.228;24.812;2023-02-11T00:33:24;99559.22;;;-13.48;84.03
51261;BME280;61705;46.228;24.812;2023-02-11T00:35:51;99555.22;;;-13.56;84.03
51261;BME280;61705;46.228;24.812;2023-02-11T00:38:18;99553.31;;;-13.58;84.09
51261;BME280;61705;46.228;24.812;2023-02-11T00:40:45;99549.63;;;-13.62;83.84
51261;BME280;61705;46.228;24.812;2023-02-11T00:43:12;99539.72;;;-13.59;83.96
51261;BME280;61705;46.228;24.812;2023-02-11T00:45:39;99542.00;;;-13.62;84.03
51261;BME280;61705;46.228;24.812;2023-02-11T00:48:05;99542.66;;;-13.65;83.88
51261;BME280;61705;46.228;24.812;2023-02-11T00:50:33;99541.78;;;-13.65;83.87
51261;BME280;61705;46.228;24.812;2023-02-11T00:53:00;99536.44;;;-13.68;83.73
51261;BME280;61705;46.228;24.812;2023-02-11T00:55:27;99539.75;;;-13.69;84.13
51261;BME280;61705;46.228;24.812;2023-02-11T00:57:56;99533.53;;;-13.73;83.95
51261;BME280;61705;46.228;24.812;2023-02-11T01:00:24;99532.53;;;-13.75;84.15
51261;BME280;61705;46.228;24.812;2023-02-11T01:02:52;99517.94;;;-13.77;83.87
51261;BME280;61705;46.228;24.812;2023-02-11T01:05:19;99518.44;;;-13.81;84.16
51261;BME280;61705;46.228;24.812;2023-02-11T01:07:46;99517.59;;;-13.92;83.83
51261;BME280;61705;46.228;24.812;2023-02-11T01:10:13;99503.00;;;-13.95;83.83
51261;BME280;61705;46.228;24.812;2023-02-11T01:12:40;99495.22;;;-13.86;84.29
51261;BME280;61705;46.228;24.812;2023-02-11T01:15:08;99502.97;;;-13.85;84.31
51261;BME280;61705;46.228;24.812;2023-02-11T01:17:35;99500.28;;;-13.76;84.61
51261;BME280;61705;46.228;24.812;2023-02-11T01:20:07;99497.84;;;-13.74;84.47
51261;BME280;61705;46.228;24.812;2023-02-11T01:22:34;99498.03;;;-13.83;84.30
51261;BME280;61705;46.228;24.812;2023-02-11T01:25:06;99499.91;;;-13.80;84.37
51261;BME280;61705;46.228;24.812;2023-02-11T01:27:33;99492.44;;;-13.89;84.24
51261;BME280;61705;46.228;24.812;2023-02-11T01:30:00;99492.25;;;-14.02;84.34
51261;BME280;61705;46.228;24.812;2023-02-11T01:32:26;99492.09;;;-13.94;84.53
51261;BME280;61705;46.228;24.812;2023-02-11T01:34:53;99496.41;;;-13.93;84.57
51261;BME280;61705;46.228;24.812;2023-02-11T01:37:20;99488.00;;;-13.92;84.52
51261;BME280;61705;46.228;24.812;2023-02-11T01:39:46;99492.72;;;-13.96;84.25
51261;BME280;61705;46.228;24.812;2023-02-11T01:42:18;99495.91;;;-13.99;84.25
51261;BME280;61705;46.228;24.812;2023-02-11T01:44:50;99495.56;;;-14.03;84.03
51261;BME280;61705;46.228;24.812;2023-02-11T01:47:18;99496.56;;;-14.01;84.13
51261;BME280;61705;46.228;24.812;2023-02-11T01:49:47;99489.06;;;-14.00;84.11
51261;BME280;61705;46.228;24.812;2023-02-11T01:52:26;99486.16;;;-14.04;83.85
51261;BME280;61705;46.228;24.812;2023-02-11T01:55:06;99481.38;;;-14.12;83.99
51261;BME280;61705;46.228;24.812;2023-02-11T01:58:01;99476.16;;;-14.13;83.93
51261;BME280;61705;46.228;24.812;2023-02-11T02:00:34;99472.88;;;-14.22;84.02
51261;BME280;61705;46.228;24.812;2023-02-11T02:03:17;99482.53;;;-14.18;84.18
51261;BME280;61705;46.228;24.812;2023-02-11T02:06:04;99475.13;;;-14.15;84.36
51261;BME280;61705;46.228;24.812;2023-02-11T02:11:21;99463.47;;;-14.13;84.17
51261;BME280;61705;46.228;24.812;2023-02-11T02:13:51;99468.81;;;-14.20;83.73
51261;BME280;61705;46.228;24.812;2023-02-11T02:16:20;99477.56;;;-14.17;83.96
51261;BME280;61705;46.228;24.812;2023-02-11T02:30:15;99459.59;;;-14.40;83.33
51261;BME280;61705;46.228;24.812;2023-02-11T02:33:29;99460.66;;;-14.48;83.36
51261;BME280;61705;46.228;24.812;2023-02-11T02:38:43;99447.38;;;-14.56;83.09
51261;BME280;61705;46.228;24.812;2023-02-11T02:41:16;99446.75;;;-14.64;82.99
51261;BME280;61705;46.228;24.812;2023-02-11T02:43:48;99449.03;;;-14.67;83.24
51261;BME280;61705;46.228;24.812;2023-02-11T02:46:23;99443.06;;;-14.57;83.43
51261;BME280;61705;46.228;24.812;2023-02-11T02:48:52;99449.94;;;-14.56;83.35
51261;BME280;61705;46.228;24.812;2023-02-11T03:00:50;99422.78;;;-14.77;83.17
51261;BME280;61705;46.228;24.812;2023-02-11T03:06:08;99425.59;;;-14.74;83.03
51261;BME280;61705;46.228;24.812;2023-02-11T03:08:46;99425.34;;;-14.77;83.07
51261;BME280;61705;46.228;24.812;2023-02-11T03:11:17;99428.38;;;-14.71;82.93
51261;BME280;61705;46.228;24.812;2023-02-11T03:13:48;99430.16;;;-14.81;83.14
51261;BME280;61705;46.228;24.812;2023-02-11T03:16:19;99432.69;;;-14.81;83.00
51261;BME280;61705;46.228;24.812;2023-02-11T03:18:53;99427.38;;;-14.84;83.02
51261;BME280;61705;46.228;24.812;2023-02-11T03:21:23;99428.03;;;-14.86;83.51
51261;BME280;61705;46.228;24.812;2023-02-11T03:23:55;99427.63;;;-14.91;83.43
51261;BME280;61705;46.228;24.812;2023-02-11T03:26:33;99430.31;;;-14.89;83.50
51261;BME280;61705;46.228;24.812;2023-02-11T03:29:15;99421.94;;;-14.88;83.30
51261;BME280;61705;46.228;24.812;2023-02-11T03:31:57;99412.56;;;-14.89;83.77
51261;BME280;61705;46.228;24.812;2023-02-11T03:37:07;99424.34;;;-14.79;83.51
51261;BME280;61705;46.228;24.812;2023-02-11T03:39:35;99418.25;;;-14.82;83.21
51261;BME280;61705;46.228;24.812;2023-02-11T03:42:05;99421.16;;;-14.87;83.54
51261;BME280;61705;46.228;24.812;2023-02-11T03:44:39;99420.78;;;-14.82;83.52
51261;BME280;61705;46.228;24.812;2023-02-11T03:47:09;99419.00;;;-14.83;83.72
51261;BME280;61705;46.228;24.812;2023-02-11T03:49:39;99415.72;;;-14.82;83.61
51261;BME280;61705;46.228;24.812;2023-02-11T03:52:08;99425.06;;;-14.81;83.54
51261;BME280;61705;46.228;24.812;2023-02-11T03:54:38;99419.38;;;-14.78;83.92
51261;BME280;61705;46.228;24.812;2023-02-11T03:57:08;99418.50;;;-14.78;83.73
51261;BME280;61705;46.228;24.812;2023-02-11T03:59:55;99414.19;;;-14.79;83.33
51261;BME280;61705;46.228;24.812;2023-02-11T04:02:25;99409.50;;;-14.85;83.27
51261;BME280;61705;46.228;24.812;2023-02-11T04:04:53;99413.47;;;-15.09;82.64
51261;BME280;61705;46.228;24.812;2023-02-11T04:07:19;99425.50;;;-15.27;82.52
51261;BME280;61705;46.228;24.812;2023-02-11T04:09:46;99427.53;;;-15.43;82.37
51261;BME280;61705;46.228;24.812;2023-02-11T04:12:13;99425.34;;;-15.49;82.65
51261;BME280;61705;46.228;24.812;2023-02-11T04:14:39;99423.47;;;-15.51;82.84
51261;BME280;61705;46.228;24.812;2023-02-11T04:17:06;99425.22;;;-15.50;83.33
51261;BME280;61705;46.228;24.812;2023-02-11T04:19:33;99427.16;;;-15.48;83.23
51261;BME280;61705;46.228;24.812;2023-02-11T04:22:03;99417.03;;;-15.38;82.96
51261;BME280;61705;46.228;24.812;2023-02-11T04:24:29;99418.00;;;-15.36;83.11
51261;BME280;61705;46.228;24.812;2023-02-11T04:26:56;99409.78;;;-15.23;83.25
51261;BME280;61705;46.228;24.812;2023-02-11T04:29:23;99406.63;;;-15.20;83.09
51261;BME280;61705;46.228;24.812;2023-02-11T04:31:50;99415.63;;;-15.24;83.21
51261;BME280;61705;46.228;24.812;2023-02-11T04:34:17;99411.19;;;-15.26;83.14
51261;BME280;61705;46.228;24.812;2023-02-11T04:36:43;99415.47;;;-15.25;82.61
51261;BME280;61705;46.228;24.812;2023-02-11T04:39:10;99403.59;;;-15.26;82.81
51261;BME280;61705;46.228;24.812;2023-02-11T04:41:37;99399.03;;;-15.31;82.67
51261;BME280;61705;46.228;24.812;2023-02-11T04:44:04;99401.31;;;-15.23;82.74
51261;BME280;61705;46.228;24.812;2023-02-11T04:46:30;99411.81;;;-15.29;82.63
51261;BME280;61705;46.228;24.812;2023-02-11T04:48:57;99404.97;;;-15.30;82.53
51261;BME280;61705;46.228;24.812;2023-02-11T04:51:24;99409.41;;;-15.27;82.40
51261;BME280;61705;46.228;24.812;2023-02-11T04:53:51;99402.44;;;-15.30;82.59
51261;BME280;61705;46.228;24.812;2023-02-11T04:56:18;99409.69;;;-15.35;82.34
51261;BME280;61705;46.228;24.812;2023-02-11T04:58:44;99400.78;;;-15.40;82.45
51261;BME280;61705;46.228;24.812;2023-02-11T05:01:13;99402.44;;;-15.40;82.65
51261;BME280;61705;46.228;24.812;2023-02-11T05:03:40;99402.44;;;-15.40;82.85
51261;BME280;61705;46.228;24.812;2023-02-11T05:06:08;99401.94;;;-15.46;82.83
51261;BME280;61705;46.228;24.812;2023-02-11T05:08:35;99398.63;;;-15.56;82.68
51261;BME280;61705;46.228;24.812;2023-02-11T05:11:02;99396.06;;;-15.56;82.98
51261;BME280;61705;46.228;24.812;2023-02-11T05:13:29;99392.03;;;-15.54;82.79
51261;BME280;61705;46.228;24.812;2023-02-11T05:15:58;99396.09;;;-15.45;82.90
51261;BME280;61705;46.228;24.812;2023-02-11T05:18:25;99397.38;;;-15.40;82.79
51261;BME280;61705;46.228;24.812;2023-02-11T05:20:54;99393.81;;;-15.42;82.80
51261;BME280;61705;46.228;24.812;2023-02-11T05:23:21;99391.53;;;-15.39;82.80
51261;BME280;61705;46.228;24.812;2023-02-11T05:25:48;99394.31;;;-15.46;82.60
51261;BME280;61705;46.228;24.812;2023-02-11T05:28:15;99393.94;;;-15.51;82.72
51261;BME280;61705;46.228;24.812;2023-02-11T05:30:42;99393.56;;;-15.45;82.90
51261;BME280;61705;46.228;24.812;2023-02-11T05:33:09;99389.16;;;-15.38;82.63
51261;BME280;61705;46.228;24.812;2023-02-11T05:35:35;99385.97;;;-15.35;82.86
51261;BME280;61705;46.228;24.812;2023-02-11T05:38:02;99383.41;;;-15.35;82.80
51261;BME280;61705;46.228;24.812;2023-02-11T05:40:29;99388.63;;;-15.34;82.86
51261;BME280;61705;46.228;24.812;2023-02-11T05:42:55;99388.75;;;-15.22;82.84
51261;BME280;61705;46.228;24.812;2023-02-11T05:45:22;99401.31;;;-15.13;82.46
51261;BME280;61705;46.228;24.812;2023-02-11T05:47:51;99392.16;;;-15.11;82.53
51261;BME280;61705;46.228;24.812;2023-02-11T05:50:18;99393.19;;;-15.09;82.21
51261;BME280;61705;46.228;24.812;2023-02-11T05:52:45;99393.06;;;-15.00;82.11
51261;BME280;61705;46.228;24.812;2023-02-11T05:55:12;99403.94;;;-14.91;82.08
51261;BME280;61705;46.228;24.812;2023-02-11T05:57:39;99396.84;;;-14.95;81.81
51261;BME280;61705;46.228;24.812;2023-02-11T06:00:06;99389.22;;;-14.95;81.37
51261;BME280;61705;46.228;24.812;2023-02-11T06:02:33;99387.31;;;-14.98;81.54
51261;BME280;61705;46.228;24.812;2023-02-11T06:05:00;99385.91;;;-14.94;81.28
51261;BME280;61705;46.228;24.812;2023-02-11T06:07:27;99386.56;;;-14.87;81.35
51261;BME280;61705;46.228;24.812;2023-02-11T06:09:53;99383.25;;;-14.86;81.60
51261;BME280;61705;46.228;24.812;2023-02-11T06:12:20;99390.25;;;-14.83;81.05
51261;BME280;61705;46.228;24.812;2023-02-11T06:14:48;99385.44;;;-14.90;81.28
51261;BME280;61705;46.228;24.812;2023-02-11T06:17:14;99388.47;;;-14.94;81.25
51261;BME280;61705;46.228;24.812;2023-02-11T06:19:41;99395.31;;;-14.93;81.00
51261;BME280;61705;46.228;24.812;2023-02-11T06:22:08;99385.44;;;-14.90;80.80
51261;BME280;61705;46.228;24.812;2023-02-11T06:24:35;99379.69;;;-14.88;80.70
51261;BME280;61705;46.228;24.812;2023-02-11T06:27:22;99384.00;;;-14.76;80.79
51261;BME280;61705;46.228;24.812;2023-02-11T06:29:49;99377.91;;;-14.46;80.51
51261;BME280;61705;46.228;24.812;2023-02-11T06:32:18;99383.75;;;-14.47;80.06
51261;BME280;61705;46.228;24.812;2023-02-11T06:35:07;99379.44;;;-14.48;80.06
51261;BME280;61705;46.228;24.812;2023-02-11T06:37:37;99377.72;;;-14.27;80.12
51261;BME280;61705;46.228;24.812;2023-02-11T06:40:04;99376.28;;;-14.24;79.69
51261;BME280;61705;46.228;24.812;2023-02-11T06:42:31;99377.03;;;-14.15;79.77
51261;BME280;61705;46.228;24.812;2023-02-11T06:44:58;99361.16;;;-14.22;79.01
51261;BME280;61705;46.228;24.812;2023-02-11T06:47:24;99370.44;;;-14.23;78.73
51261;BME280;61705;46.228;24.812;2023-02-11T06:49:51;99372.25;;;-14.22;79.05
51261;BME280;61705;46.228;24.812;2023-02-11T06:52:18;99366.44;;;-14.09;79.10
51261;BME280;61705;46.228;24.812;2023-02-11T06:54:44;99367.69;;;-14.04;79.07
51261;BME280;61705;46.228;24.812;2023-02-11T06:57:11;99365.56;;;-14.10;78.75
51261;BME280;61705;46.228;24.812;2023-02-11T06:59:38;99365.69;;;-14.08;78.66
51261;BME280;61705;46.228;24.812;2023-02-11T07:02:04;99367.03;;;-14.23;78.67
51261;BME280;61705;46.228;24.812;2023-02-11T07:04:31;99372.81;;;-14.14;78.78
51261;BME280;61705;46.228;24.812;2023-02-11T07:06:58;99373.13;;;-13.99;78.86
51261;BME280;61705;46.228;24.812;2023-02-11T07:09:27;99367.81;;;-13.80;78.76
51261;BME280;61705;46.228;24.812;2023-02-11T07:11:54;99368.78;;;-13.78;78.63
51261;BME280;61705;46.228;24.812;2023-02-11T07:14:21;99364.31;;;-13.93;78.47
51261;BME280;61705;46.228;24.812;2023-02-11T07:16:47;99367.94;;;-14.01;78.50
51261;BME280;61705;46.228;24.812;2023-02-11T07:19:14;99370.66;;;-13.88;78.66
51261;BME280;61705;46.228;24.812;2023-02-11T07:21:43;99366.31;;;-13.89;78.61
51261;BME280;61705;46.228;24.812;2023-02-11T07:24:09;99369.75;;;-13.66;79.03
51261;BME280;61705;46.228;24.812;2023-02-11T07:26:37;99365.97;;;-13.71;78.47
51261;BME280;61705;46.228;24.812;2023-02-11T07:29:03;99365.13;;;-13.60;78.36
51261;BME280;61705;46.228;24.812;2023-02-11T07:31:31;99365.63;;;-13.76;78.48
51261;BME280;61705;46.228;24.812;2023-02-11T07:34:00;99363.41;;;-13.71;78.24
51261;BME280;61705;46.228;24.812;2023-02-11T07:36:29;99358.47;;;-13.70;78.02
51261;BME280;61705;46.228;24.812;2023-02-11T07:38:57;99350.47;;;-13.74;78.35
51261;BME280;61705;46.228;24.812;2023-02-11T07:41:25;99347.59;;;-13.57;78.20
51261;BME280;61705;46.228;24.812;2023-02-11T07:43:52;99345.56;;;-13.61;78.14
51261;BME280;61705;46.228;24.812;2023-02-11T07:46:22;99339.03;;;-13.57;78.19
51261;BME280;61705;46.228;24.812;2023-02-11T07:48:49;99333.47;;;-13.42;78.18
51261;BME280;61705;46.228;24.812;2023-02-11T07:51:25;99342.44;;;-13.35;78.19
51261;BME280;61705;46.228;24.812;2023-02-11T07:53:56;99339.00;;;-13.35;78.21
51261;BME280;61705;46.228;24.812;2023-02-11T07:56:23;99338.56;;;-13.18;78.57
51261;BME280;61705;46.228;24.812;2023-02-11T07:58:50;99330.63;;;-13.11;77.99
51261;BME280;61705;46.228;24.812;2023-02-11T08:01:20;99333.25;;;-13.21;78.13
51261;BME280;61705;46.228;24.812;2023-02-11T08:03:50;99329.06;;;-13.09;78.15
51261;BME280;61705;46.228;24.812;2023-02-11T08:06:20;99324.88;;;-12.97;78.29
51261;BME280;61705;46.228;24.812;2023-02-11T08:08:47;99324.56;;;-12.78;78.28
51261;BME280;61705;46.228;24.812;2023-02-11T08:11:20;99317.81;;;-12.77;77.68
51261;BME280;61705;46.228;24.812;2023-02-11T08:13:48;99325.19;;;-12.69;78.22
51261;BME280;61705;46.228;24.812;2023-02-11T08:16:29;99325.63;;;-12.62;77.79
51261;BME280;61705;46.228;24.812;2023-02-11T08:19:00;99316.31;;;-12.38;77.57
51261;BME280;61705;46.228;24.812;2023-02-11T08:21:27;99310.94;;;-12.18;77.35
51261;BME280;61705;46.228;24.812;2023-02-11T08:23:55;99301.03;;;-12.27;76.89
51261;BME280;61705;46.228;24.812;2023-02-11T08:26:27;99302.44;;;-11.94;77.08
51261;BME280;61705;46.228;24.812;2023-02-11T08:28:55;99294.56;;;-11.85;76.03
51261;BME280;61705;46.228;24.812;2023-02-11T08:31:32;99305.78;;;-11.56;76.03
51261;BME280;61705;46.228;24.812;2023-02-11T08:33:59;99300.22;;;-11.51;75.81
51261;BME280;61705;46.228;24.812;2023-02-11T08:36:29;99294.84;;;-11.42;75.71
51261;BME280;61705;46.228;24.812;2023-02-11T08:38:58;99286.94;;;-11.33;75.60
51261;BME280;61705;46.228;24.812;2023-02-11T08:41:44;99290.56;;;-11.30;74.90
51261;BME280;61705;46.228;24.812;2023-02-11T08:44:11;99290.00;;;-11.12;74.44
51261;BME280;61705;46.228;24.812;2023-02-11T08:46:38;99277.06;;;-10.89;74.66
51261;BME280;61705;46.228;24.812;2023-02-11T08:49:05;99282.84;;;-10.78;74.09
51261;BME280;61705;46.228;24.812;2023-02-11T08:51:32;99276.75;;;-10.67;73.93
51261;BME280;61705;46.228;24.812;2023-02-11T08:53:59;99278.84;;;-10.33;73.77
51261;BME280;61705;46.228;24.812;2023-02-11T08:56:26;99279.19;;;-10.14;73.81
51261;BME280;61705;46.228;24.812;2023-02-11T08:58:53;99282.19;;;-10.06;73.78
51261;BME280;61705;46.228;24.812;2023-02-11T09:01:26;99275.81;;;-10.13;73.25
51261;BME280;61705;46.228;24.812;2023-02-11T09:03:55;99273.47;;;-10.10;72.89
51261;BME280;61705;46.228;24.812;2023-02-11T09:06:23;99271.84;;;-9.94;73.55
51261;BME280;61705;46.228;24.812;2023-02-11T09:08:53;99268.44;;;-9.80;73.77
51261;BME280;61705;46.228;24.812;2023-02-11T09:11:25;99269.56;;;-9.90;73.37
51261;BME280;61705;46.228;24.812;2023-02-11T09:13:52;99259.97;;;-9.79;73.95
51261;BME280;61705;46.228;24.812;2023-02-11T09:16:26;99253.81;;;-9.68;73.72
51261;BME280;61705;46.228;24.812;2023-02-11T09:18:57;99246.50;;;-9.47;73.06
51261;BME280;61705;46.228;24.812;2023-02-11T09:21:24;99240.88;;;-9.56;72.99
51261;BME280;61705;46.228;24.812;2023-02-11T09:23:51;99235.41;;;-9.62;72.63
51261;BME280;61705;46.228;24.812;2023-02-11T09:26:21;99222.41;;;-9.65;72.06
51261;BME280;61705;46.228;24.812;2023-02-11T09:28:48;99228.59;;;-9.47;72.41
51261;BME280;61705;46.228;24.812;2023-02-11T09:31:18;99223.06;;;-9.25;71.90
51261;BME280;61705;46.228;24.812;2023-02-11T09:33:47;99219.78;;;-9.22;71.57
51261;BME280;61705;46.228;24.812;2023-02-11T09:36:19;99214.69;;;-9.22;72.19
51261;BME280;61705;46.228;24.812;2023-02-11T09:38:47;99216.56;;;-9.03;71.86
51261;BME280;61705;46.228;24.812;2023-02-11T09:43:52;99220.94;;;-8.71;71.30
51261;BME280;61705;46.228;24.812;2023-02-11T09:46:20;99213.03;;;-8.60;71.24
51261;BME280;61705;46.228;24.812;2023-02-11T09:48:53;99213.25;;;-8.40;70.96
51261;BME280;61705;46.228;24.812;2023-02-11T09:54:00;99208.25;;;-8.04;69.97
51261;BME280;61705;46.228;24.812;2023-02-11T09:56:31;99207.84;;;-7.96;69.96
51261;BME280;61705;46.228;24.812;2023-02-11T09:58:58;99199.50;;;-7.92;69.74
51261;BME280;61705;46.228;24.812;2023-02-11T10:01:43;99191.56;;;-7.80;69.64
51261;BME280;61705;46.228;24.812;2023-02-11T10:04:23;99188.97;;;-7.64;69.38
51261;BME280;61705;46.228;24.812;2023-02-11T10:09:50;99163.19;;;-6.95;68.67
51261;BME280;61705;46.228;24.812;2023-02-11T10:12:41;99154.75;;;-6.75;68.07
51261;BME280;61705;46.228;24.812;2023-02-11T10:23:27;99128.16;;;-6.18;66.29
51261;BME280;61705;46.228;24.812;2023-02-11T10:25:56;99126.19;;;-6.24;66.27
51261;BME280;61705;46.228;24.812;2023-02-11T10:28:30;99117.03;;;-5.98;66.00
51261;BME280;61705;46.228;24.812;2023-02-11T10:34:13;99094.06;;;-5.93;65.92
51261;BME280;61705;46.228;24.812;2023-02-11T10:36:42;99097.66;;;-5.88;66.52
51261;BME280;61705;46.228;24.812;2023-02-11T10:39:15;99092.91;;;-5.79;67.01
51261;BME280;61705;46.228;24.812;2023-02-11T10:41:48;99084.94;;;-5.64;66.44
51261;BME280;61705;46.228;24.812;2023-02-11T10:46:48;99064.88;;;-5.30;64.77
51261;BME280;61705;46.228;24.812;2023-02-11T10:49:38;99072.63;;;-5.30;64.99
51261;BME280;61705;46.228;24.812;2023-02-11T10:52:20;99067.88;;;-4.96;65.43
51261;BME280;61705;46.228;24.812;2023-02-11T10:57:21;99074.44;;;-4.58;65.92
51261;BME280;61705;46.228;24.812;2023-02-11T10:59:56;99076.22;;;-4.57;65.14
51261;BME280;61705;46.228;24.812;2023-02-11T11:02:28;99073.94;;;-4.72;64.49
51261;BME280;61705;46.228;24.812;2023-02-11T11:05:05;99063.69;;;-4.70;64.09
51261;BME280;61705;46.228;24.812;2023-02-11T11:07:33;99059.06;;;-4.33;65.38
51261;BME280;61705;46.228;24.812;2023-02-11T11:11:00;99054.41;;;-4.17;65.31
51261;BME280;61705;46.228;24.812;2023-02-11T11:12:57;99046.13;;;-4.09;64.64
51261;BME280;61705;46.228;24.812;2023-02-11T11:15:26;99052.75;;;-3.91;65.59
51261;BME280;61705;46.228;24.812;2023-02-11T11:18:16;99040.59;;;-3.94;64.56
51261;BME280;61705;46.228;24.812;2023-02-11T11:21:19;99047.88;;;-4.08;63.18
51261;BME280;61705;46.228;24.812;2023-02-11T11:23:50;99042.81;;;-4.30;65.54
51261;BME280;61705;46.228;24.812;2023-02-11T11:26:18;99041.38;;;-4.46;64.03
51261;BME280;61705;46.228;24.812;2023-02-11T11:31:20;99033.88;;;-4.14;66.27
51261;BME280;61705;46.228;24.812;2023-02-11T11:33:52;99033.38;;;-4.04;65.03
51261;BME280;61705;46.228;24.812;2023-02-11T11:36:22;99023.22;;;-3.99;65.04
51261;BME280;61705;46.228;24.812;2023-02-11T11:38:57;99011.75;;;-3.82;65.21
51261;BME280;61705;46.228;24.812;2023-02-11T11:41:34;98995.44;;;-3.79;65.53
51261;BME280;61705;46.228;24.812;2023-02-11T11:46:31;98973.59;;;-3.64;65.20
51261;BME280;61705;46.228;24.812;2023-02-11T11:49:28;98970.47;;;-3.53;64.27
51261;BME280;61705;46.228;24.812;2023-02-11T11:52:09;98969.16;;;-3.41;63.45
51261;BME280;61705;46.228;24.812;2023-02-11T11:54:42;98961.34;;;-3.69;64.65
51261;BME280;61705;46.228;24.812;2023-02-11T11:57:19;98961.31;;;-3.71;65.57
51261;BME280;61705;46.228;24.812;2023-02-11T11:59:47;98954.75;;;-3.88;64.52
51261;BME280;61705;46.228;24.812;2023-02-11T12:05:13;98949.06;;;-3.76;66.04
51261;BME280;61705;46.228;24.812;2023-02-11T12:16:40;98940.00;;;-3.35;65.05
51261;BME280;61705;46.228;24.812;2023-02-11T12:25:54;98904.28;;;-3.20;65.33
51261;BME280;61705;46.228;24.812;2023-02-11T12:28:25;98903.69;;;-3.11;65.36
51261;BME280;61705;46.228;24.812;2023-02-11T12:33:48;98895.16;;;-2.77;63.20
51261;BME280;61705;46.228;24.812;2023-02-11T12:39:08;98894.78;;;-2.57;61.86
51261;BME280;61705;46.228;24.812;2023-02-11T12:53:04;98873.00;;;-2.32;60.65
51261;BME280;61705;46.228;24.812;2023-02-11T12:55:44;98871.41;;;-2.27;62.40
51261;BME280;61705;46.228;24.812;2023-02-11T12:58:17;98867.59;;;-2.42;59.65
51261;BME280;61705;46.228;24.812;2023-02-11T13:01:01;98856.78;;;-2.25;59.91
51261;BME280;61705;46.228;24.812;2023-02-11T13:03:43;98853.38;;;-2.23;59.90
51261;BME280;61705;46.228;24.812;2023-02-11T13:06:14;98850.84;;;-2.21;58.33
51261;BME280;61705;46.228;24.812;2023-02-11T13:08:50;98843.78;;;-2.28;56.47
51261;BME280;61705;46.228;24.812;2023-02-11T13:11:23;98848.56;;;-2.07;56.00
51261;BME280;61705;46.228;24.812;2023-02-11T13:19:45;98839.81;;;-2.12;54.25
51261;BME280;61705;46.228;24.812;2023-02-11T13:24:43;98839.34;;;-1.96;54.03
51261;BME280;61705;46.228;24.812;2023-02-11T13:27:28;98829.75;;;-2.00;53.42
51261;BME280;61705;46.228;24.812;2023-02-11T13:35:37;98827.41;;;-1.89;53.52
51261;BME280;61705;46.228;24.812;2023-02-11T13:38:16;98826.47;;;-1.92;53.84
51261;BME280;61705;46.228;24.812;2023-02-11T13:41:03;98820.63;;;-1.84;53.25
51261;BME280;61705;46.228;24.812;2023-02-11T13:43:34;98817.19;;;-1.82;53.48
51261;BME280;61705;46.228;24.812;2023-02-11T13:46:04;98819.03;;;-1.78;54.05
51261;BME280;61705;46.228;24.812;2023-02-11T13:48:35;98820.78;;;-1.75;54.29
51261;BME280;61705;46.228;24.812;2023-02-11T13:51:11;98811.94;;;-1.86;54.55
51261;BME280;61705;46.228;24.812;2023-02-11T13:53:46;98816.25;;;-1.87;54.43
51261;BME280;61705;46.228;24.812;2023-02-11T13:56:41;98815.25;;;-1.92;53.91
51261;BME280;61705;46.228;24.812;2023-02-11T14:10:57;98822.75;;;-2.04;56.09
51261;BME280;61705;46.228;24.812;2023-02-11T14:13:31;98822.63;;;-2.09;56.18
51261;BME280;61705;46.228;24.812;2023-02-11T14:16:27;98823.63;;;-2.04;56.45
51261;BME280;61705;46.228;24.812;2023-02-11T14:19:04;98817.75;;;-1.95;56.01
51261;BME280;61705;46.228;24.812;2023-02-11T14:21:36;98814.44;;;-1.91;56.07
51261;BME280;61705;46.228;24.812;2023-02-11T14:29:41;98816.72;;;-2.03;56.60
51261;BME280;61705;46.228;24.812;2023-02-11T14:35:23;98821.69;;;-2.12;56.48
51261;BME280;61705;46.228;24.812;2023-02-11T14:38:28;98824.97;;;-2.20;56.75
51261;BME280;61705;46.228;24.812;2023-02-11T14:43:50;98814.34;;;-2.32;57.28
51261;BME280;61705;46.228;24.812;2023-02-11T14:46:19;98815.75;;;-2.45;57.25
51261;BME280;61705;46.228;24.812;2023-02-11T14:48:48;98808.69;;;-2.52;57.67
51261;BME280;61705;46.228;24.812;2023-02-11T14:51:23;98815.44;;;-2.57;57.67
51261;BME280;61705;46.228;24.812;2023-02-11T14:53:56;98814.38;;;-2.65;58.19
51261;BME280;61705;46.228;24.812;2023-02-11T14:56:29;98814.22;;;-2.71;58.35
51261;BME280;61705;46.228;24.812;2023-02-11T14:58:59;98811.47;;;-2.77;58.96
51261;BME280;61705;46.228;24.812;2023-02-11T15:01:39;98807.81;;;-2.87;59.33
51261;BME280;61705;46.228;24.812;2023-02-11T15:06:48;98799.47;;;-3.08;60.36
51261;BME280;61705;46.228;24.812;2023-02-11T15:09:18;98804.56;;;-3.12;60.69
51261;BME280;61705;46.228;24.812;2023-02-11T15:11:47;98805.22;;;-3.19;61.06
51261;BME280;61705;46.228;24.812;2023-02-11T15:17:06;98816.88;;;-3.35;62.05
51261;BME280;61705;46.228;24.812;2023-02-11T15:19:37;98813.19;;;-3.43;62.46
51261;BME280;61705;46.228;24.812;2023-02-11T15:22:15;98819.94;;;-3.48;64.01
51261;BME280;61705;46.228;24.812;2023-02-11T15:25:16;98813.66;;;-3.56;64.77